createdAt,value
2019-05-30T00:01:22.179Z,1.70
2019-05-30T00:03:50.576Z,1.57
2019-05-30T00:06:18.937Z,1.60
2019-05-30T00:08:47.708Z,1.80
2019-05-30T00:11:16.082Z,1.60
2019-05-30T00:13:44.568Z,1.90
2019-05-30T00:16:12.967Z,1.80
2019-05-30T00:18:41.352Z,1.70
2019-05-30T00:21:09.748Z,1.80
2019-05-30T00:23:38.115Z,1.60
2019-05-30T00:26:07.563Z,1.90
2019-05-30T00:28:36.031Z,1.93
2019-05-30T00:31:04.787Z,2.10
2019-05-30T00:33:33.218Z,1.97
2019-05-30T00:36:01.825Z,2.00
2019-05-30T00:38:30.367Z,1.63
2019-05-30T00:40:59.898Z,1.73
2019-05-30T00:43:28.408Z,1.83
2019-05-30T00:45:57.902Z,1.73
2019-05-30T00:48:26.517Z,2.10
2019-05-30T00:50:56.251Z,2.03
2019-05-30T00:53:24.775Z,2.47
2019-05-30T00:55:53.196Z,1.73
2019-05-30T00:58:21.584Z,1.90
2019-05-30T01:00:49.973Z,2.50
2019-05-30T01:03:18.378Z,2.07
2019-05-30T01:05:46.748Z,2.03
2019-05-30T01:08:15.121Z,2.10
2019-05-30T01:10:43.524Z,2.20
2019-05-30T01:13:11.900Z,2.10
2019-05-30T01:15:40.262Z,2.27
2019-05-30T01:18:08.673Z,1.93
2019-05-30T01:20:37.077Z,2.47
2019-05-30T01:23:05.452Z,2.13
2019-05-30T01:25:33.862Z,2.87
2019-05-30T01:28:03.411Z,2.17
2019-05-30T01:30:32.086Z,2.13
2019-05-30T01:33:01.719Z,2.20
2019-05-30T01:35:30.252Z,2.27
2019-05-30T01:37:59.678Z,2.10
2019-05-30T01:40:28.064Z,1.93
2019-05-30T01:42:57.790Z,1.90
2019-05-30T01:45:26.322Z,2.20
2019-05-30T01:47:54.698Z,2.40
2019-05-30T01:50:23.441Z,2.03
2019-05-30T01:52:52.042Z,1.60
2019-05-30T01:55:20.417Z,2.20
2019-05-30T01:57:48.794Z,2.23
2019-05-30T02:00:21.243Z,1.90
2019-05-30T02:02:47.516Z,2.40
2019-05-30T02:05:15.888Z,2.70
2019-05-30T02:07:44.317Z,2.30
2019-05-30T02:10:13.723Z,1.90
2019-05-30T02:12:42.088Z,2.20
2019-05-30T02:15:10.487Z,1.83
2019-05-30T02:17:38.867Z,2.20
2019-05-30T02:20:07.984Z,2.30
2019-05-30T02:22:36.396Z,1.90
2019-05-30T02:25:06.412Z,2.00
2019-05-30T02:27:34.800Z,2.23
2019-05-30T02:30:06.032Z,1.60
2019-05-30T02:32:34.009Z,2.23
2019-05-30T02:35:03.385Z,2.00
2019-05-30T02:37:32.401Z,1.77
2019-05-30T02:40:03.193Z,1.80
2019-05-30T02:42:30.823Z,1.80
2019-05-30T02:45:01.206Z,1.87
2019-05-30T02:47:29.233Z,1.93
2019-05-30T02:49:57.618Z,1.70
2019-05-30T02:52:26.016Z,2.17
2019-05-30T02:54:54.384Z,1.70
2019-05-30T02:57:22.774Z,1.80
2019-05-30T02:59:51.212Z,1.90
2019-05-30T03:02:19.588Z,1.80
2019-05-30T03:04:47.962Z,1.57
2019-05-30T03:07:16.357Z,2.40
2019-05-30T03:09:44.763Z,2.30
2019-05-30T03:12:13.369Z,1.90
2019-05-30T03:14:42.071Z,1.90
2019-05-30T03:17:12.594Z,1.70
2019-05-30T03:19:40.484Z,1.87
2019-05-30T03:22:11.421Z,2.00
2019-05-30T03:24:38.897Z,1.77
2019-05-30T03:27:09.397Z,1.80
2019-05-30T03:29:37.303Z,2.23
2019-05-30T03:32:45.022Z,2.10
2019-05-30T03:34:35.741Z,1.83
2019-05-30T03:37:08.436Z,2.30
2019-05-30T03:39:34.203Z,2.30
2019-05-30T03:42:04.427Z,2.20
2019-05-30T03:44:32.697Z,2.30
2019-05-30T03:47:03.734Z,2.20
2019-05-30T03:49:33.480Z,1.93
2019-05-30T03:52:01.861Z,2.20
2019-05-30T03:54:30.297Z,2.20
2019-05-30T03:57:09.029Z,2.40
2019-05-30T03:59:44.138Z,2.00
2019-05-30T04:02:27.906Z,2.20
2019-05-30T04:05:00.753Z,2.00
2019-05-30T04:07:29.112Z,1.97
2019-05-30T04:09:57.552Z,2.00
2019-05-30T04:12:34.410Z,2.20
2019-05-30T04:15:28.751Z,1.97
2019-05-30T04:17:57.120Z,2.00
2019-05-30T04:20:25.501Z,2.87
2019-05-30T04:22:53.922Z,2.13
2019-05-30T04:25:22.319Z,2.00
2019-05-30T04:27:50.673Z,2.17
2019-05-30T04:30:19.101Z,2.60
2019-05-30T04:32:47.467Z,3.10
2019-05-30T04:35:16.807Z,2.20
2019-05-30T04:37:45.863Z,2.70
2019-05-30T04:40:15.482Z,1.83
2019-05-30T04:42:44.741Z,2.40
2019-05-30T04:45:13.655Z,1.73
2019-05-30T04:47:42.111Z,2.20
2019-05-30T04:50:12.263Z,2.20
2019-05-30T04:52:40.660Z,1.73
2019-05-30T04:55:10.718Z,1.90
2019-05-30T04:57:39.147Z,2.30
2019-05-30T05:00:07.726Z,2.27
2019-05-30T05:02:36.126Z,2.43
2019-05-30T05:05:07.767Z,2.00
2019-05-30T05:07:36.146Z,2.23
2019-05-30T05:10:07.210Z,1.90
2019-05-30T05:12:35.599Z,2.10
2019-05-30T05:15:04.796Z,1.90
2019-05-30T05:17:33.253Z,2.20
2019-05-30T05:20:01.632Z,2.20
2019-05-30T05:22:30.017Z,2.13
2019-05-30T05:24:58.436Z,1.70
2019-05-30T05:27:26.882Z,1.97
2019-05-30T05:29:55.261Z,2.50
2019-05-30T05:32:24.654Z,2.10
2019-05-30T05:34:53.120Z,2.00
2019-05-30T05:37:21.564Z,1.97
2019-05-30T05:39:49.968Z,2.00
2019-05-30T05:42:18.360Z,1.77
2019-05-30T05:44:46.748Z,2.40
2019-05-30T05:47:16.304Z,2.23
2019-05-30T05:49:44.890Z,2.37
2019-05-30T05:52:13.280Z,1.93
2019-05-30T05:54:41.656Z,2.27
2019-05-30T05:57:10.132Z,2.27
2019-05-30T05:59:38.512Z,2.30
2019-05-30T06:02:06.897Z,1.87
2019-05-30T06:04:35.286Z,2.33
2019-05-30T06:07:03.658Z,2.13
2019-05-30T06:09:32.095Z,2.13
2019-05-30T06:12:00.459Z,2.30
2019-05-30T06:14:28.837Z,1.97
2019-05-30T06:16:57.238Z,1.83
2019-05-30T06:19:25.617Z,2.30
2019-05-30T06:21:54.675Z,2.07
2019-05-30T06:24:23.654Z,2.17
2019-05-30T06:26:52.104Z,1.80
2019-05-30T06:29:20.527Z,1.53
2019-05-30T06:32:08.340Z,2.30
2019-05-30T06:34:39.634Z,1.60
2019-05-30T06:37:06.780Z,2.40
2019-05-30T06:39:35.170Z,1.77
2019-05-30T06:42:03.644Z,2.10
2019-05-30T06:44:32.660Z,2.17
2019-05-30T06:47:01.080Z,2.00
2019-05-30T06:49:30.912Z,1.90
2019-05-30T06:51:59.424Z,1.90
2019-05-30T06:54:29.399Z,2.00
2019-05-30T06:56:57.912Z,2.40
2019-05-30T06:59:26.284Z,1.87
2019-05-30T07:01:54.686Z,1.50
2019-05-30T07:04:24.040Z,2.47
2019-05-30T07:06:53.233Z,1.63
2019-05-30T07:09:22.685Z,1.80
2019-05-30T07:11:51.084Z,1.77
2019-05-30T07:14:19.504Z,2.00
2019-05-30T07:16:47.888Z,1.83
2019-05-30T07:19:16.253Z,2.27
2019-05-30T07:21:44.669Z,2.00
2019-05-30T07:24:13.047Z,2.00
2019-05-30T07:26:41.434Z,1.53
2019-05-30T07:29:09.824Z,1.90
2019-05-30T07:31:38.206Z,1.53
2019-05-30T07:34:06.628Z,1.70
2019-05-30T07:36:35.017Z,1.80
2019-05-30T07:39:04.716Z,1.70
2019-05-30T07:41:33.325Z,1.67
2019-05-30T07:44:01.741Z,2.50
2019-05-30T07:46:30.997Z,2.33
2019-05-30T07:48:59.440Z,2.33
2019-05-30T07:51:28.482Z,1.70
2019-05-30T07:53:56.907Z,1.90
2019-05-30T07:56:25.292Z,2.20
2019-05-30T07:58:53.686Z,1.80
2019-05-30T08:01:22.068Z,1.80
2019-05-30T08:03:50.470Z,1.77
2019-05-30T08:06:18.845Z,1.60
2019-05-30T08:08:47.270Z,1.70
2019-05-30T08:11:15.608Z,1.83
2019-05-30T08:13:43.987Z,2.20
2019-05-30T08:16:12.381Z,1.97
2019-05-30T08:18:40.773Z,1.90
2019-05-30T08:21:09.160Z,1.70
2019-05-30T08:23:38.421Z,2.03
2019-05-30T08:26:06.884Z,1.67
2019-05-30T08:28:36.305Z,1.73
2019-05-30T08:31:04.850Z,1.83
2019-05-30T08:33:33.554Z,2.07
2019-05-30T08:36:05.364Z,1.80
2019-05-30T08:38:32.903Z,1.80
2019-05-30T08:41:01.618Z,2.00
2019-05-30T08:43:31.220Z,1.77
2019-05-30T08:45:59.674Z,2.20
2019-05-30T08:48:28.080Z,1.80
2019-05-30T08:50:56.456Z,1.70
2019-05-30T08:53:24.838Z,1.67
2019-05-30T08:55:53.272Z,1.73
2019-05-30T08:58:21.656Z,2.10
2019-05-30T09:00:50.036Z,1.50
2019-05-30T09:03:18.445Z,1.87
2019-05-30T09:06:02.050Z,1.90
2019-05-30T09:08:16.854Z,2.13
2019-05-30T09:10:46.399Z,1.70
2019-05-30T09:13:14.976Z,1.77
2019-05-30T09:15:43.344Z,1.40
2019-05-30T09:18:11.779Z,1.60
2019-05-30T09:20:41.740Z,1.73
2019-05-30T09:23:10.334Z,1.50
2019-05-30T09:25:39.947Z,1.80
2019-05-30T09:28:08.430Z,1.60
2019-05-30T09:30:38.280Z,1.50
2019-05-30T09:33:06.884Z,1.73
2019-05-30T09:35:35.257Z,1.80
2019-05-30T09:38:03.711Z,1.90
2019-05-30T09:40:33.414Z,1.90
2019-05-30T09:43:01.821Z,1.67
2019-05-30T09:45:30.196Z,1.93
2019-05-30T09:47:58.597Z,2.60
2019-05-30T09:50:26.966Z,2.00
2019-05-30T09:52:55.352Z,1.70
2019-05-30T09:55:23.825Z,1.87
2019-05-30T09:57:52.220Z,2.07
2019-05-30T10:00:23.240Z,1.77
2019-05-30T10:02:52.547Z,1.80
2019-05-30T10:05:24.347Z,1.60
2019-05-30T10:07:51.202Z,2.03
2019-05-30T10:10:19.653Z,1.73
2019-05-30T10:12:48.543Z,1.63
2019-05-30T10:15:17.745Z,1.77
2019-05-30T10:17:47.645Z,1.60
2019-05-30T10:20:16.492Z,1.87
2019-05-30T10:22:48.289Z,2.30
2019-05-30T10:25:15.014Z,1.50
2019-05-30T10:27:43.398Z,1.80
2019-05-30T10:30:11.770Z,1.60
2019-05-30T10:32:40.194Z,2.10
2019-05-30T10:35:08.638Z,2.70
2019-05-30T10:37:37.023Z,1.93
2019-05-30T10:40:07.065Z,2.00
2019-05-30T10:42:35.437Z,2.07
2019-05-30T10:45:08.461Z,2.13
2019-05-30T10:47:36.841Z,1.80
2019-05-30T10:50:06.680Z,1.90
2019-05-30T10:52:35.058Z,1.80
2019-05-30T10:55:07.393Z,1.67
2019-05-30T10:57:35.776Z,1.90
2019-05-30T11:00:10.505Z,2.13
2019-05-30T11:02:39.400Z,2.10
2019-05-30T11:05:08.908Z,1.70
2019-05-30T11:08:01.262Z,1.83
2019-05-30T11:10:37.381Z,1.53
2019-05-30T11:13:10.594Z,1.90
2019-05-30T11:15:38.973Z,2.10
2019-05-30T11:18:07.417Z,1.80
2019-05-30T11:20:35.906Z,1.50
2019-05-30T11:23:04.362Z,1.80
2019-05-30T11:25:33.215Z,1.77
2019-05-30T11:28:01.600Z,2.90
2019-05-30T11:30:29.971Z,1.93
2019-05-30T11:32:59.438Z,1.40
2019-05-30T11:35:28.090Z,1.67
2019-05-30T11:37:57.254Z,1.47
2019-05-30T11:40:25.791Z,1.73
2019-05-30T11:42:55.347Z,1.70
2019-05-30T11:45:23.948Z,1.40
2019-05-30T11:47:53.692Z,2.00
2019-05-30T11:50:22.231Z,1.50
2019-05-30T11:52:51.716Z,2.00
2019-05-30T11:55:20.214Z,1.60
2019-05-30T11:57:49.858Z,1.83
2019-05-30T12:00:18.361Z,1.73
2019-05-30T12:02:46.777Z,1.50
2019-05-30T12:05:15.145Z,2.30
2019-05-30T12:07:43.533Z,2.07
2019-05-30T12:10:13.020Z,1.80
2019-05-30T12:12:41.392Z,1.63
2019-05-30T12:15:11.454Z,1.80
2019-05-30T12:17:39.827Z,1.80
2019-05-30T12:20:08.210Z,1.70
2019-05-30T12:22:36.632Z,2.00
2019-05-30T12:25:08.102Z,1.60
2019-05-30T12:27:36.484Z,1.40
2019-05-30T12:30:10.912Z,1.70
2019-05-30T12:32:39.295Z,1.70
2019-05-30T12:35:27.143Z,1.80
2019-05-30T12:37:59.605Z,1.40
2019-05-30T12:40:26.350Z,1.67
2019-05-30T12:42:57.657Z,1.40
2019-05-30T12:45:25.190Z,1.63
2019-05-30T12:47:53.569Z,1.60
2019-05-30T12:50:22.067Z,1.90
2019-05-30T12:52:50.446Z,1.60
2019-05-30T12:55:19.388Z,3.17
2019-05-30T12:57:47.812Z,2.10
2019-05-30T13:00:21.402Z,2.23
2019-05-30T13:02:49.776Z,2.30
2019-05-30T13:05:18.180Z,1.97
2019-05-30T13:07:46.567Z,1.93
2019-05-30T13:10:15.014Z,1.70
2019-05-30T13:12:43.416Z,1.87
2019-05-30T13:15:11.792Z,1.70
2019-05-30T13:17:40.172Z,1.97
2019-05-30T13:20:10.564Z,1.60
2019-05-30T13:22:38.936Z,1.67
2019-05-30T13:25:08.792Z,1.83
2019-05-30T13:27:37.168Z,1.80
2019-05-30T13:30:07.988Z,2.00
2019-05-30T13:32:36.386Z,1.90
2019-05-30T13:35:06.115Z,1.62
2019-05-30T13:37:34.492Z,1.70
2019-05-30T13:40:03.504Z,1.80
2019-05-30T13:42:31.847Z,1.80
2019-05-30T13:45:00.218Z,1.90
2019-05-30T13:47:28.608Z,1.70
2019-05-30T13:49:56.972Z,1.72
2019-05-30T13:52:25.367Z,2.15
2019-05-30T13:54:53.767Z,1.60
2019-05-30T13:57:23.386Z,1.77
2019-05-30T13:59:51.772Z,1.65
2019-05-30T14:02:20.204Z,1.40
2019-05-30T14:04:48.564Z,1.50
2019-05-30T14:07:16.950Z,1.47
2019-05-30T14:09:45.380Z,1.55
2019-05-30T14:12:13.765Z,1.50
2019-05-30T14:14:42.152Z,1.40
2019-05-30T14:17:12.314Z,1.60
2019-05-30T14:19:40.583Z,1.50
2019-05-30T14:22:09.388Z,1.95
2019-05-30T14:24:37.870Z,1.90
2019-05-30T14:27:07.525Z,1.40
2019-05-30T14:29:36.084Z,1.70
2019-05-30T14:32:05.540Z,1.80
2019-05-30T14:34:34.140Z,1.70
2019-05-30T14:37:02.532Z,1.50
2019-05-30T14:39:31.020Z,2.00
2019-05-30T14:41:59.360Z,1.80
2019-05-30T14:44:27.820Z,1.90
2019-05-30T14:46:56.214Z,1.92
2019-05-30T14:49:24.596Z,1.67
2019-05-30T14:51:52.990Z,1.55
2019-05-30T14:54:21.517Z,1.75
2019-05-30T14:56:49.900Z,2.10
2019-05-30T14:59:18.284Z,1.80
2019-05-30T15:01:46.682Z,1.80
2019-05-30T15:04:15.059Z,1.40
2019-05-30T15:06:43.494Z,1.60
2019-05-30T15:09:17.550Z,1.70
2019-05-30T15:11:41.880Z,1.80
2019-05-30T15:14:10.889Z,1.57
2019-05-30T15:16:39.379Z,1.80
2019-05-30T15:19:08.125Z,1.60
2019-05-30T15:21:36.580Z,1.85
2019-05-30T15:24:05.665Z,1.80
2019-05-30T15:26:34.145Z,1.57
2019-05-30T15:29:02.638Z,2.02
2019-05-30T15:31:31.018Z,2.10
2019-05-30T15:33:59.392Z,2.17
2019-05-30T15:36:27.815Z,1.98
2019-05-30T15:38:56.203Z,2.40
2019-05-30T15:41:24.582Z,2.35
2019-05-30T15:43:52.968Z,2.12
2019-05-30T15:46:21.471Z,2.07
2019-05-30T15:48:49.970Z,2.10
2019-05-30T15:51:18.867Z,2.00
2019-05-30T15:53:47.263Z,2.40
2019-05-30T15:56:15.635Z,2.00
2019-05-30T15:58:44.052Z,1.77
2019-05-30T16:01:12.444Z,2.50
2019-05-30T16:03:40.813Z,2.10
2019-05-30T16:06:10.405Z,2.03
2019-05-30T16:08:38.918Z,1.70
2019-05-30T16:11:07.280Z,3.23
2019-05-30T16:13:35.657Z,2.30
2019-05-30T16:16:04.226Z,2.10
2019-05-30T16:18:32.619Z,2.20
2019-05-30T16:21:00.975Z,2.10
2019-05-30T16:23:29.416Z,2.10
2019-05-30T16:25:57.793Z,2.20
2019-05-30T16:28:26.172Z,2.00
2019-05-30T16:30:54.585Z,2.30
2019-05-30T16:33:23.064Z,2.00
2019-05-30T16:35:51.446Z,2.27
2019-05-30T16:38:20.108Z,2.10
2019-05-30T16:40:48.578Z,2.23
2019-05-30T16:43:18.136Z,1.67
2019-05-30T16:45:46.576Z,2.73
2019-05-30T16:48:14.944Z,1.93
2019-05-30T16:50:43.322Z,2.50
2019-05-30T16:53:11.740Z,3.03
2019-05-30T16:55:40.119Z,2.00
2019-05-30T16:58:08.508Z,1.97
2019-05-30T17:00:36.905Z,1.77
2019-05-30T17:03:05.353Z,2.07
2019-05-30T17:05:34.596Z,1.70
2019-05-30T17:08:03.020Z,2.10
2019-05-30T17:10:33.272Z,2.00
2019-05-30T17:13:01.440Z,1.77
2019-05-30T17:15:29.868Z,2.03
2019-05-30T17:17:58.260Z,2.27
2019-05-30T17:20:26.660Z,1.63
2019-05-30T17:22:55.060Z,2.27
2019-05-30T17:25:23.511Z,2.33
2019-05-30T17:27:52.947Z,2.33
2019-05-30T17:30:21.641Z,2.07
2019-05-30T17:32:50.000Z,2.13
2019-05-30T17:35:18.387Z,2.17
2019-05-30T17:37:46.775Z,3.33
2019-05-30T17:40:15.154Z,3.40
2019-05-30T17:42:43.563Z,2.30
2019-05-30T17:45:11.937Z,1.93
2019-05-30T17:47:40.304Z,2.73
2019-05-30T17:50:10.878Z,2.10
2019-05-30T17:52:39.261Z,3.00
2019-05-30T17:55:07.874Z,3.60
2019-05-30T17:57:36.302Z,2.57
2019-05-30T18:00:11.993Z,2.40
2019-05-30T18:02:41.324Z,2.60
2019-05-30T18:05:09.864Z,1.90
2019-05-30T18:07:38.253Z,1.53
2019-05-30T18:10:07.153Z,2.10
2019-05-30T18:12:35.628Z,2.00
2019-05-30T18:15:13.236Z,1.93
2019-05-30T18:17:41.596Z,2.07
2019-05-30T18:20:10.329Z,2.37
2019-05-30T18:22:38.729Z,2.07
2019-05-30T18:25:07.319Z,2.00
2019-05-30T18:27:35.700Z,2.40
2019-05-30T18:30:07.017Z,2.90
2019-05-30T18:32:35.397Z,2.73
2019-05-30T18:35:05.023Z,3.30
2019-05-30T18:37:33.431Z,2.43
2019-05-30T18:40:01.824Z,3.70
2019-05-30T18:42:31.150Z,5.97
2019-05-30T18:44:59.702Z,3.70
2019-05-30T18:47:29.052Z,3.00
2019-05-30T18:49:57.484Z,2.90
2019-05-30T18:52:26.128Z,2.90
2019-05-30T18:54:54.568Z,3.00
2019-05-30T18:57:22.956Z,2.80
2019-05-30T18:59:51.358Z,2.80
2019-05-30T19:02:19.736Z,2.50
2019-05-30T19:04:48.154Z,2.27
2019-05-30T19:07:16.541Z,2.40
2019-05-30T19:09:44.910Z,2.30
2019-05-30T19:12:13.329Z,2.60
2019-05-30T19:14:41.722Z,2.63
2019-05-30T19:17:10.140Z,2.30
2019-05-30T19:19:38.585Z,2.70
2019-05-30T19:22:06.930Z,2.40
2019-05-30T19:24:35.326Z,2.50
2019-05-30T19:27:03.738Z,2.20
2019-05-30T19:29:33.004Z,2.37
2019-05-30T19:32:01.398Z,2.23
2019-05-30T19:34:30.731Z,2.37
2019-05-30T19:36:59.194Z,3.17
2019-05-30T19:39:27.624Z,2.60
2019-05-30T19:41:57.624Z,2.83
2019-05-30T19:44:26.222Z,2.50
2019-05-30T19:46:54.604Z,2.07
2019-05-30T19:49:23.018Z,2.03
2019-05-30T19:51:51.399Z,2.17
2019-05-30T19:54:19.840Z,2.20
2019-05-30T19:56:48.258Z,2.73
2019-05-30T19:59:16.644Z,2.50
2019-05-30T20:01:45.065Z,3.00
2019-05-30T20:04:13.491Z,4.17
2019-05-30T20:06:41.841Z,3.30
2019-05-30T20:09:10.238Z,2.93
2019-05-30T20:11:39.371Z,2.63
2019-05-30T20:14:07.870Z,2.30
2019-05-30T20:16:36.239Z,3.27
2019-05-30T20:19:04.648Z,2.70
2019-05-30T20:21:33.753Z,2.67
2019-05-30T20:24:02.286Z,3.43
2019-05-30T20:26:30.686Z,2.87
2019-05-30T20:28:59.104Z,3.80
2019-05-30T20:31:27.481Z,2.83
2019-05-30T20:33:55.857Z,2.53
2019-05-30T20:36:24.337Z,3.00
2019-05-30T20:38:52.718Z,2.70
2019-05-30T20:41:21.124Z,3.10
2019-05-30T20:43:49.576Z,2.73
2019-05-30T20:46:23.240Z,2.70
2019-05-30T20:48:47.995Z,2.33
2019-05-30T20:51:21.094Z,2.77
2019-05-30T20:53:47.638Z,2.63
2019-05-30T20:56:16.094Z,2.60
2019-05-30T20:58:44.467Z,2.73
2019-05-30T21:01:12.847Z,2.80
2019-05-30T21:03:41.794Z,2.93
2019-05-30T21:06:10.628Z,2.77
2019-05-30T21:08:39.062Z,2.90
2019-05-30T21:11:07.642Z,2.87
2019-05-30T21:13:36.274Z,2.90
2019-05-30T21:16:04.708Z,2.87
2019-05-30T21:18:35.662Z,2.80
2019-05-30T21:21:04.337Z,2.93
2019-05-30T21:23:32.734Z,2.80
2019-05-30T21:26:01.150Z,3.33
2019-05-30T21:28:29.554Z,3.30
2019-05-30T21:30:57.936Z,2.97
2019-05-30T21:33:26.418Z,3.40
2019-05-30T21:35:54.764Z,2.90
2019-05-30T21:38:23.164Z,6.03
2019-05-30T21:40:51.550Z,3.93
2019-05-30T21:43:19.991Z,4.13
2019-05-30T21:45:49.022Z,3.30
2019-05-30T21:48:17.460Z,4.27
2019-05-30T21:50:47.033Z,3.77
2019-05-30T21:53:15.902Z,3.40
2019-05-30T21:55:45.871Z,3.30
2019-05-30T21:58:14.377Z,3.60
2019-05-30T22:00:50.917Z,3.20
2019-05-30T22:03:19.566Z,3.00
2019-05-30T22:05:48.587Z,3.20
2019-05-30T22:08:18.134Z,3.37
2019-05-30T22:10:47.682Z,3.10
2019-05-30T22:13:16.144Z,3.00
2019-05-30T22:15:45.855Z,2.87
2019-05-30T22:18:14.467Z,3.27
2019-05-30T22:20:43.798Z,3.40
2019-05-30T22:23:12.233Z,2.50
2019-05-30T22:25:40.635Z,3.20
2019-05-30T22:28:09.007Z,3.80
2019-05-30T22:30:37.428Z,3.70
2019-05-30T22:33:25.237Z,3.10
2019-05-30T22:35:53.661Z,2.57
2019-05-30T22:38:22.027Z,3.20
2019-05-30T22:40:50.408Z,3.50
2019-05-30T22:43:25.126Z,3.50
2019-05-30T22:45:50.240Z,3.30
2019-05-30T22:48:18.761Z,4.20
2019-05-30T22:50:47.160Z,3.40
2019-05-30T22:53:15.627Z,4.50
2019-05-30T22:55:45.029Z,3.67
2019-05-30T22:58:13.552Z,4.23
2019-05-30T23:00:41.938Z,3.67
2019-05-30T23:03:10.316Z,3.90
2019-05-30T23:05:38.700Z,3.60
2019-05-30T23:08:07.121Z,4.13
2019-05-30T23:10:35.529Z,4.07
2019-05-30T23:13:03.887Z,3.57
2019-05-30T23:15:32.743Z,3.67
2019-05-30T23:18:01.140Z,3.93
2019-05-30T23:20:29.534Z,3.83
2019-05-30T23:22:57.929Z,3.63
2019-05-30T23:25:26.298Z,3.90
2019-05-30T23:27:55.628Z,4.23
2019-05-30T23:30:24.110Z,3.60
2019-05-30T23:32:52.493Z,3.90
2019-05-30T23:35:20.933Z,4.77
2019-05-30T23:37:50.250Z,4.30
2019-05-30T23:40:18.889Z,4.20
2019-05-30T23:42:47.292Z,4.13
2019-05-30T23:45:15.662Z,4.00
2019-05-30T23:47:44.103Z,4.17
2019-05-30T23:50:12.487Z,3.83
2019-05-30T23:52:40.874Z,4.23
2019-05-30T23:55:09.291Z,3.60
2019-05-30T23:57:37.677Z,4.30
